createdAt,value
2022-12-19T00:01:37.641Z,99827.78
2022-12-19T00:04:08.331Z,99826.53
2022-12-19T00:06:36.865Z,99823.81
2022-12-19T00:09:04.077Z,99818.78
2022-12-19T00:11:30.755Z,99823.06
2022-12-19T00:13:58.481Z,99812.88
2022-12-19T00:16:28.405Z,99812.81
2022-12-19T00:18:59.032Z,99808.97
2022-12-19T00:21:27.951Z,99810.53
2022-12-19T00:23:55.015Z,99802.16
2022-12-19T00:26:29.165Z,99803.06
2022-12-19T00:29:01.397Z,99774.66
2022-12-19T00:31:30.298Z,99759.56
2022-12-19T00:33:57.826Z,99793.63
2022-12-19T00:36:27.032Z,99801.97
2022-12-19T00:38:55.187Z,99805.09
2022-12-19T00:41:24.562Z,99799.81
2022-12-19T00:44:04.404Z,99803.63
2022-12-19T00:46:32.850Z,99799.53
2022-12-19T00:49:00.123Z,99816.47
2022-12-19T00:51:29.290Z,99815.00
2022-12-19T00:53:59.295Z,99801.72
2022-12-19T00:56:37.375Z,99810.09
2022-12-19T00:59:05.052Z,99803.44
2022-12-19T01:01:38.306Z,99798.19
2022-12-19T01:07:01.115Z,99789.28
2022-12-19T01:09:30.189Z,99787.44
2022-12-19T01:12:15.369Z,99799.91
2022-12-19T01:14:42.677Z,99787.25
2022-12-19T01:17:09.701Z,99803.09
2022-12-19T01:19:41.929Z,99799.47
2022-12-19T01:22:11.073Z,99793.63
2022-12-19T01:24:38.300Z,99794.06
2022-12-19T01:27:04.891Z,99797.47
2022-12-19T01:29:32.852Z,99802.25
2022-12-19T01:32:01.194Z,99804.19
2022-12-19T01:34:28.277Z,99794.19
2022-12-19T01:36:54.860Z,99785.81
2022-12-19T01:39:21.459Z,99774.81
2022-12-19T01:41:50.754Z,99777.28
2022-12-19T01:44:17.317Z,99779.09
2022-12-19T01:46:47.763Z,99787.25
2022-12-19T01:49:22.016Z,99788.91
2022-12-19T01:51:53.930Z,99794.00
2022-12-19T01:54:25.629Z,99796.38
2022-12-19T01:56:55.900Z,99792.00
2022-12-19T01:59:29.615Z,99787.81
2022-12-19T02:02:03.913Z,99795.19
2022-12-19T02:04:32.389Z,99792.00
2022-12-19T02:07:00.704Z,99807.63
2022-12-19T02:09:37.693Z,99800.97
2022-12-19T02:12:04.571Z,99794.25
2022-12-19T02:14:31.536Z,99784.63
2022-12-19T02:17:25.991Z,99800.09
2022-12-19T02:20:14.344Z,99792.28
2022-12-19T02:22:50.096Z,99789.81
2022-12-19T02:25:35.680Z,99787.00
2022-12-19T02:28:30.039Z,99797.91
2022-12-19T02:31:11.402Z,99795.09
2022-12-19T02:33:56.722Z,99799.28
2022-12-19T02:36:41.899Z,99797.47
2022-12-19T02:39:24.938Z,99822.38
2022-12-19T02:41:56.535Z,99814.44
2022-12-19T02:44:35.740Z,99817.72
2022-12-19T02:47:04.317Z,99813.19
2022-12-19T02:49:34.432Z,99808.53
2022-12-19T02:52:19.204Z,99809.28
2022-12-19T02:55:11.646Z,99791.63
2022-12-19T02:57:53.437Z,99799.28
2022-12-19T03:00:23.000Z,99807.09
2022-12-19T03:03:07.708Z,99789.81
2022-12-19T03:05:37.207Z,99792.44
2022-12-19T03:08:12.847Z,99786.88
2022-12-19T03:10:48.833Z,99789.09
2022-12-19T03:13:28.789Z,99772.00
2022-12-19T03:15:57.410Z,99774.00
2022-12-19T03:18:27.355Z,99776.16
2022-12-19T03:21:09.147Z,99782.19
2022-12-19T03:23:36.164Z,99767.59
2022-12-19T03:26:06.988Z,99755.72
2022-12-19T03:28:50.596Z,99752.25
2022-12-19T03:31:22.082Z,99773.81
2022-12-19T03:33:54.530Z,99758.06
2022-12-19T03:36:28.462Z,99750.69
2022-12-19T03:38:57.154Z,99762.69
2022-12-19T03:41:44.388Z,99755.78
2022-12-19T03:44:13.345Z,99757.59
2022-12-19T03:46:46.059Z,99770.16
2022-12-19T03:49:13.581Z,99767.44
2022-12-19T03:52:11.084Z,99767.53
2022-12-19T03:54:41.691Z,99738.03
2022-12-19T03:57:19.461Z,99730.41
2022-12-19T03:59:54.659Z,99690.38
2022-12-19T04:02:23.308Z,99687.94
2022-12-19T04:05:01.556Z,99725.16
2022-12-19T04:07:28.436Z,99709.78
2022-12-19T04:09:58.873Z,99697.28
2022-12-19T04:12:32.533Z,99700.03
2022-12-19T04:14:59.324Z,99683.53
2022-12-19T04:17:39.901Z,99715.53
2022-12-19T04:20:13.464Z,99739.81
2022-12-19T04:23:03.287Z,99759.38
2022-12-19T04:25:50.101Z,99774.75
2022-12-19T04:28:31.273Z,99742.28
2022-12-19T04:30:59.235Z,99762.66
2022-12-19T04:33:25.946Z,99741.97
2022-12-19T04:35:52.859Z,99732.44
2022-12-19T04:38:22.357Z,99755.16
2022-12-19T04:40:49.027Z,99748.44
2022-12-19T04:43:18.575Z,99739.47
2022-12-19T04:45:45.362Z,99748.78
2022-12-19T04:48:11.967Z,99762.34
2022-12-19T04:50:38.506Z,99770.69
2022-12-19T04:53:06.527Z,99730.63
2022-12-19T04:55:33.194Z,99733.91
2022-12-19T04:58:05.755Z,99750.22
2022-12-19T05:00:32.714Z,99746.22
2022-12-19T05:02:59.482Z,99730.22
2022-12-19T05:05:29.165Z,99744.19
2022-12-19T05:07:58.920Z,99737.38
2022-12-19T05:10:25.666Z,99752.47
2022-12-19T05:12:54.361Z,99741.28
2022-12-19T05:15:20.914Z,99733.72
2022-12-19T05:17:47.513Z,99720.88
2022-12-19T05:20:14.521Z,99716.88
2022-12-19T05:22:41.036Z,99715.88
2022-12-19T05:25:08.289Z,99717.81
2022-12-19T05:27:34.907Z,99729.44
2022-12-19T05:30:02.197Z,99735.53
2022-12-19T05:32:33.704Z,99742.81
2022-12-19T05:35:00.433Z,99741.06
2022-12-19T05:37:27.090Z,99740.25
2022-12-19T05:39:53.623Z,99739.53
2022-12-19T05:42:20.168Z,99743.63
2022-12-19T05:44:46.696Z,99744.34
2022-12-19T05:47:13.321Z,99739.59
2022-12-19T05:49:39.998Z,99742.63
2022-12-19T05:52:06.652Z,99736.31
2022-12-19T05:54:33.385Z,99739.72
2022-12-19T05:57:00.034Z,99729.59
2022-12-19T05:59:27.271Z,99725.41
2022-12-19T06:01:54.475Z,99735.22
2022-12-19T06:04:21.414Z,99730.66
2022-12-19T06:06:48.058Z,99729.72
2022-12-19T06:09:14.784Z,99730.94
2022-12-19T06:11:41.733Z,99734.28
2022-12-19T06:14:08.628Z,99734.81
2022-12-19T06:16:35.292Z,99732.69
2022-12-19T06:19:02.099Z,99733.50
2022-12-19T06:21:28.740Z,99731.56
2022-12-19T06:23:55.473Z,99734.94
2022-12-19T06:26:22.626Z,99731.78
2022-12-19T06:28:51.547Z,99724.53
2022-12-19T06:31:19.977Z,99728.59
2022-12-19T06:33:46.743Z,99722.59
2022-12-19T06:36:15.082Z,99721.28
2022-12-19T06:38:41.862Z,99715.88
2022-12-19T06:41:28.981Z,99720.69
2022-12-19T06:43:59.672Z,99708.00
2022-12-19T06:46:26.640Z,99709.84
2022-12-19T06:48:55.573Z,99717.28
2022-12-19T06:51:22.570Z,99714.13
2022-12-19T06:53:49.457Z,99711.59
2022-12-19T06:56:17.137Z,99714.88
2022-12-19T06:58:47.289Z,99722.63
2022-12-19T07:01:31.153Z,99722.41
2022-12-19T07:03:58.496Z,99706.78
2022-12-19T07:06:25.329Z,99703.50
2022-12-19T07:08:53.063Z,99692.69
2022-12-19T07:11:19.921Z,99704.94
2022-12-19T07:13:46.512Z,99700.44
2022-12-19T07:16:13.195Z,99706.06
2022-12-19T07:18:41.036Z,99703.59
2022-12-19T07:21:13.356Z,99704.44
2022-12-19T07:23:41.125Z,99708.19
2022-12-19T07:26:08.206Z,99701.69
2022-12-19T07:28:36.368Z,99696.97
2022-12-19T07:31:02.854Z,99692.38
2022-12-19T07:33:29.555Z,99696.66
2022-12-19T07:35:56.172Z,99695.72
2022-12-19T07:38:22.825Z,99690.72
2022-12-19T07:40:49.489Z,99681.94
2022-12-19T07:43:16.095Z,99686.09
2022-12-19T07:45:42.871Z,99681.41
2022-12-19T07:48:10.192Z,99685.69
2022-12-19T07:50:37.087Z,99686.50
2022-12-19T07:53:03.848Z,99688.13
2022-12-19T07:55:30.548Z,99687.53
2022-12-19T07:57:57.215Z,99689.78
2022-12-19T08:00:24.067Z,99693.75
2022-12-19T08:02:50.863Z,99684.25
2022-12-19T08:05:18.086Z,99681.91
2022-12-19T08:07:44.830Z,99681.09
2022-12-19T08:10:14.642Z,99683.81
2022-12-19T08:12:41.822Z,99689.13
2022-12-19T08:15:08.972Z,99701.38
2022-12-19T08:17:39.071Z,99705.25
2022-12-19T08:20:08.549Z,99715.16
2022-12-19T08:22:35.679Z,99711.06
2022-12-19T08:25:02.480Z,99710.84
2022-12-19T08:27:29.555Z,99705.22
2022-12-19T08:29:56.402Z,99704.19
2022-12-19T08:32:23.062Z,99701.63
2022-12-19T08:34:50.219Z,99703.84
2022-12-19T08:37:17.462Z,99699.53
2022-12-19T08:39:47.062Z,99694.00
2022-12-19T08:42:14.114Z,99688.47
2022-12-19T08:44:40.833Z,99683.03
2022-12-19T08:47:07.683Z,99687.97
2022-12-19T08:49:34.407Z,99686.03
2022-12-19T08:52:01.351Z,99676.44
2022-12-19T08:54:28.192Z,99676.06
2022-12-19T08:56:54.911Z,99686.22
2022-12-19T08:59:30.854Z,99679.47
2022-12-19T09:02:06.220Z,99677.66
2022-12-19T09:05:57.905Z,99684.25
2022-12-19T09:07:20.263Z,99683.91
2022-12-19T09:09:47.368Z,99675.56
2022-12-19T09:12:15.293Z,99683.47
2022-12-19T09:14:44.206Z,99688.59
2022-12-19T09:17:11.124Z,99685.84
2022-12-19T09:19:37.968Z,99688.50
2022-12-19T09:22:05.815Z,99683.13
2022-12-19T09:24:32.496Z,99692.19
2022-12-19T09:26:59.354Z,99696.28
2022-12-19T09:29:34.912Z,99695.38
2022-12-19T09:32:02.356Z,99702.13
2022-12-19T09:34:37.809Z,99695.16
2022-12-19T09:37:08.250Z,99692.03
2022-12-19T09:39:37.432Z,99697.41
2022-12-19T09:42:15.249Z,99689.84
2022-12-19T09:45:22.917Z,99696.38
2022-12-19T09:47:59.222Z,99693.25
2022-12-19T09:50:35.831Z,99697.78
2022-12-19T09:53:08.063Z,99695.81
2022-12-19T09:55:38.616Z,99704.41
2022-12-19T09:58:18.332Z,99705.00
2022-12-19T10:00:49.153Z,99688.81
2022-12-19T10:03:39.684Z,99691.72
2022-12-19T10:07:11.735Z,99688.69
2022-12-19T10:10:44.979Z,99686.38
2022-12-19T10:12:45.783Z,99678.91
2022-12-19T10:15:20.186Z,99673.31
2022-12-19T10:18:06.097Z,99680.31
2022-12-19T10:20:40.868Z,99680.28
2022-12-19T10:23:29.197Z,99675.72
2022-12-19T10:26:30.470Z,99672.31
2022-12-19T10:29:00.201Z,99671.97
2022-12-19T10:31:34.037Z,99662.84
2022-12-19T10:34:04.924Z,99663.44
2022-12-19T10:37:13.046Z,99661.69
2022-12-19T10:39:35.868Z,99651.16
2022-12-19T10:42:18.934Z,99644.97
2022-12-19T10:44:49.339Z,99661.19
2022-12-19T10:47:17.418Z,99643.94
2022-12-19T10:49:44.255Z,99646.59
2022-12-19T10:52:12.607Z,99646.13
2022-12-19T10:54:42.786Z,99661.78
2022-12-19T10:57:18.706Z,99648.69
2022-12-19T11:00:00.617Z,99649.25
2022-12-19T11:02:39.520Z,99650.75
2022-12-19T11:05:20.013Z,99638.94
2022-12-19T11:08:16.447Z,99636.38
2022-12-19T11:13:17.613Z,99629.13
2022-12-19T11:17:37.242Z,99612.06
2022-12-19T11:21:27.032Z,99614.81
2022-12-19T11:29:32.231Z,99603.75
2022-12-19T11:29:36.673Z,99596.44
2022-12-19T11:29:37.683Z,99593.47
2022-12-19T11:30:43.089Z,99600.13
2022-12-19T11:34:21.775Z,99575.72
2022-12-19T11:36:58.522Z,99574.22
2022-12-19T11:39:45.672Z,99575.44
2022-12-19T11:42:34.084Z,99576.69
2022-12-19T11:45:13.407Z,99575.09
2022-12-19T11:47:57.970Z,99563.13
2022-12-19T11:50:32.040Z,99562.09
2022-12-19T11:53:19.290Z,99568.88
2022-12-19T11:56:15.836Z,99565.88
2022-12-19T11:58:50.361Z,99551.56
2022-12-19T12:01:26.163Z,99548.06
2022-12-19T12:04:28.258Z,99559.81
2022-12-19T12:06:56.405Z,99554.03
2022-12-19T12:13:50.297Z,99553.63
2022-12-19T12:23:46.518Z,99530.09
2022-12-19T12:29:59.329Z,99537.25
2022-12-19T12:31:02.009Z,99540.75
2022-12-19T12:31:40.800Z,99527.66
2022-12-19T12:31:57.752Z,99504.91
2022-12-19T12:32:04.209Z,99529.66
2022-12-19T12:35:46.913Z,99509.94
2022-12-19T12:40:32.688Z,99484.66
2022-12-19T12:43:33.620Z,99485.72
2022-12-19T12:46:03.736Z,99486.53
2022-12-19T12:48:48.352Z,99495.84
2022-12-19T12:51:18.379Z,99512.63
2022-12-19T12:53:48.423Z,99513.69
2022-12-19T12:56:18.602Z,99515.06
2022-12-19T12:58:51.737Z,99512.50
2022-12-19T13:01:30.214Z,99494.38
2022-12-19T13:04:27.321Z,99496.00
2022-12-19T13:06:54.309Z,99480.72
2022-12-19T13:09:27.514Z,99480.47
2022-12-19T13:12:20.991Z,99473.28
2022-12-19T13:14:50.795Z,99473.13
2022-12-19T13:17:32.846Z,99478.56
2022-12-19T13:20:05.734Z,99476.53
2022-12-19T13:22:32.597Z,99474.91
2022-12-19T13:25:36.739Z,99482.88
2022-12-19T13:28:37.379Z,99483.69
2022-12-19T13:31:21.291Z,99495.72
2022-12-19T13:33:55.828Z,99488.69
2022-12-19T13:39:54.906Z,99496.00
2022-12-19T13:40:09.132Z,99495.03
2022-12-19T13:43:20.301Z,99504.25
2022-12-19T13:46:00.961Z,99494.66
2022-12-19T13:48:57.254Z,99499.78
2022-12-19T13:51:28.037Z,99496.53
2022-12-19T13:54:00.095Z,99489.91
2022-12-19T13:56:30.849Z,99478.56
2022-12-19T13:59:01.317Z,99479.09
2022-12-19T14:01:37.039Z,99475.84
2022-12-19T14:04:08.764Z,99470.16
2022-12-19T14:06:44.839Z,99475.44
2022-12-19T14:11:28.011Z,99472.44
2022-12-19T14:13:44.148Z,99463.81
2022-12-19T14:15:56.611Z,99464.63
2022-12-19T14:18:44.666Z,99462.72
2022-12-19T14:22:04.607Z,99468.81
2022-12-19T14:24:19.992Z,99478.41
2022-12-19T14:28:21.004Z,99479.91
2022-12-19T14:30:27.533Z,99460.84
2022-12-19T14:33:43.987Z,99470.16
2022-12-19T14:36:06.875Z,99470.16
2022-12-19T14:39:24.521Z,99474.38
2022-12-19T14:42:00.610Z,99465.56
2022-12-19T14:53:33.930Z,99462.06
2022-12-19T14:53:51.721Z,99459.63
2022-12-19T14:54:14.514Z,99450.16
2022-12-19T14:54:37.230Z,99446.50
2022-12-19T14:59:29.233Z,99454.06
2022-12-19T15:02:30.699Z,99452.19
2022-12-19T15:05:08.519Z,99466.25
2022-12-19T15:07:47.393Z,99461.13
2022-12-19T15:11:06.608Z,99459.63
2022-12-19T15:14:55.375Z,99464.88
2022-12-19T15:16:29.788Z,99455.56
2022-12-19T15:19:08.093Z,99456.38
2022-12-19T15:21:37.544Z,99450.69
2022-12-19T15:24:04.723Z,99464.75
2022-12-19T15:26:41.890Z,99462.97
2022-12-19T15:29:27.910Z,99455.84
2022-12-19T15:31:57.577Z,99454.88
2022-12-19T15:34:35.396Z,99460.16
2022-12-19T15:37:05.254Z,99459.75
2022-12-19T15:39:39.786Z,99455.69
2022-12-19T15:42:17.580Z,99459.59
2022-12-19T15:44:46.406Z,99460.13
2022-12-19T15:47:22.193Z,99456.47
2022-12-19T15:52:53.812Z,99447.00
2022-12-19T15:55:30.230Z,99447.16
2022-12-19T15:58:00.798Z,99454.06
2022-12-19T16:00:35.527Z,99444.56
2022-12-19T16:05:55.608Z,99437.56
2022-12-19T16:08:26.223Z,99432.56
2022-12-19T16:11:14.961Z,99428.34
2022-12-19T16:13:59.591Z,99436.47
2022-12-19T16:16:27.895Z,99441.34
2022-12-19T16:18:54.573Z,99436.47
2022-12-19T16:21:33.193Z,99425.78
2022-12-19T16:24:01.109Z,99409.03
2022-12-19T16:26:37.281Z,99413.50
2022-12-19T16:29:18.047Z,99409.59
2022-12-19T16:31:45.215Z,99414.59
2022-12-19T16:34:17.703Z,99409.69
2022-12-19T16:37:03.572Z,99409.59
2022-12-19T16:39:30.516Z,99407.13
2022-12-19T16:41:57.622Z,99409.03
2022-12-19T16:44:41.151Z,99407.94
2022-12-19T16:47:16.744Z,99403.78
2022-12-19T16:49:44.675Z,99400.38
2022-12-19T16:52:12.131Z,99402.53
2022-12-19T16:54:44.327Z,99394.69
2022-12-19T16:57:21.540Z,99394.28
2022-12-19T16:59:51.028Z,99391.19
2022-12-19T17:02:44.823Z,99394.16
2022-12-19T17:05:20.038Z,99393.22
2022-12-19T17:07:47.627Z,99385.81
2022-12-19T17:10:14.974Z,99387.41
2022-12-19T17:12:44.566Z,99389.28
2022-12-19T17:15:27.397Z,99392.66
2022-12-19T17:17:58.093Z,99393.19
2022-12-19T17:20:27.896Z,99380.78
2022-12-19T17:22:54.913Z,99388.75
2022-12-19T17:25:28.308Z,99392.13
2022-12-19T17:27:59.103Z,99383.47
2022-12-19T17:30:25.918Z,99392.66
2022-12-19T17:32:55.645Z,99377.25
2022-12-19T17:35:28.218Z,99389.16
2022-12-19T17:37:56.976Z,99393.63
2022-12-19T17:40:28.734Z,99392.38
2022-12-19T17:42:56.738Z,99384.97
2022-12-19T17:45:29.429Z,99390.09
2022-12-19T17:48:04.132Z,99392.66
2022-12-19T17:50:37.617Z,99397.13
2022-12-19T17:53:06.105Z,99388.19
2022-12-19T17:55:37.802Z,99395.19
2022-12-19T17:58:04.877Z,99396.03
2022-12-19T18:00:33.399Z,99391.56
2022-12-19T18:03:05.793Z,99384.28
2022-12-19T18:05:36.054Z,99388.56
2022-12-19T18:08:04.310Z,99391.56
2022-12-19T18:10:34.851Z,99384.28
2022-12-19T18:13:01.664Z,99393.72
2022-12-19T18:15:28.429Z,99402.63
2022-12-19T18:17:55.387Z,99408.16
2022-12-19T18:20:31.609Z,99413.41
2022-12-19T18:23:00.514Z,99409.47
2022-12-19T18:25:31.085Z,99412.72
2022-12-19T18:27:58.580Z,99404.50
2022-12-19T18:30:26.027Z,99403.66
2022-12-19T18:32:57.499Z,99400.28
2022-12-19T18:35:37.059Z,99401.09
2022-12-19T18:38:21.239Z,99401.63
2022-12-19T18:40:50.191Z,99410.97
2022-12-19T18:43:20.087Z,99407.28
2022-12-19T18:45:54.731Z,99418.25
2022-12-19T18:48:27.612Z,99417.41
2022-12-19T18:50:58.976Z,99411.88
2022-12-19T18:53:35.376Z,99421.59
2022-12-19T18:56:05.116Z,99429.41
2022-12-19T18:58:36.826Z,99424.53
2022-12-19T19:01:07.355Z,99436.69
2022-12-19T19:03:54.139Z,99440.19
2022-12-19T19:06:25.923Z,99436.41
2022-12-19T19:08:53.525Z,99431.97
2022-12-19T19:11:23.537Z,99429.25
2022-12-19T19:13:52.405Z,99429.75
2022-12-19T19:16:25.159Z,99418.00
2022-12-19T19:18:57.517Z,99412.19
2022-12-19T19:21:27.931Z,99413.41
2022-12-19T19:24:00.194Z,99405.28
2022-12-19T19:26:27.077Z,99407.03
2022-12-19T19:28:56.534Z,99400.41
2022-12-19T19:31:26.896Z,99392.97
2022-12-19T19:34:04.382Z,99395.53
2022-12-19T19:36:35.933Z,99388.41
2022-12-19T19:39:04.631Z,99390.16
2022-12-19T19:41:33.009Z,99394.22
2022-12-19T19:44:58.545Z,99392.47
2022-12-19T19:47:45.462Z,99400.03
2022-12-19T19:50:51.500Z,99399.47
2022-12-19T19:56:32.469Z,99398.38
2022-12-19T19:59:14.029Z,99388.22
2022-12-19T20:01:50.559Z,99394.59
2022-12-19T20:04:29.539Z,99397.53
2022-12-19T20:06:59.698Z,99400.25
2022-12-19T20:12:50.382Z,99395.13
2022-12-19T20:15:22.841Z,99392.81
2022-12-19T20:18:34.589Z,99391.84
2022-12-19T20:28:06.371Z,99405.03
2022-12-19T20:30:33.730Z,99398.03
2022-12-19T20:33:00.566Z,99398.84
2022-12-19T20:35:27.247Z,99396.94
2022-12-19T20:37:53.866Z,99384.94
2022-12-19T20:40:20.837Z,99386.31
2022-12-19T20:42:52.303Z,99386.88
2022-12-19T20:45:26.701Z,99387.00
2022-12-19T20:47:53.716Z,99387.00
2022-12-19T20:50:20.648Z,99388.88
2022-12-19T20:52:47.530Z,99388.50
2022-12-19T20:55:14.661Z,99381.94
2022-12-19T20:57:41.386Z,99386.53
2022-12-19T21:00:08.798Z,99383.81
2022-12-19T21:03:00.264Z,99385.03
2022-12-19T21:05:22.241Z,99387.59
2022-12-19T21:07:48.904Z,99379.47
2022-12-19T21:10:15.711Z,99381.09
2022-12-19T21:12:47.550Z,99379.72
2022-12-19T21:15:14.781Z,99384.31
2022-12-19T21:17:41.605Z,99378.75
2022-12-19T21:20:08.671Z,99377.25
2022-12-19T21:22:35.489Z,99385.75
2022-12-19T21:25:02.172Z,99383.31
2022-12-19T21:27:29.014Z,99389.00
2022-12-19T21:29:58.083Z,99389.91
2022-12-19T21:32:24.799Z,99397.69
2022-12-19T21:34:54.600Z,99395.56
2022-12-19T21:37:21.389Z,99393.25
2022-12-19T21:39:48.096Z,99392.56
2022-12-19T21:42:14.777Z,99397.59
2022-12-19T21:44:41.627Z,99396.78
2022-12-19T21:47:08.430Z,99389.31
2022-12-19T21:49:37.433Z,99388.31
2022-12-19T21:52:04.275Z,99371.09
2022-12-19T21:54:31.179Z,99381.06
2022-12-19T21:56:58.054Z,99380.97
2022-12-19T21:59:24.798Z,99370.56
2022-12-19T22:01:51.698Z,99370.97
2022-12-19T22:04:21.163Z,99370.66
2022-12-19T22:06:50.131Z,99373.47
2022-12-19T22:09:20.898Z,99368.34
2022-12-19T22:11:47.915Z,99372.06
2022-12-19T22:14:16.176Z,99359.03
2022-12-19T22:16:43.479Z,99347.84
2022-12-19T22:19:13.575Z,99352.41
2022-12-19T22:21:40.541Z,99357.97
2022-12-19T22:24:07.887Z,99363.09
2022-12-19T22:26:35.511Z,99367.38
2022-12-19T22:29:10.556Z,99360.34
2022-12-19T22:31:38.776Z,99360.84
2022-12-19T22:34:08.643Z,99364.66
2022-12-19T22:36:36.737Z,99365.72
2022-12-19T22:39:06.358Z,99359.91
2022-12-19T22:41:35.708Z,99370.16
2022-12-19T22:44:04.319Z,99369.78
2022-12-19T22:46:35.860Z,99369.66
2022-12-19T22:49:05.992Z,99367.91
2022-12-19T22:51:33.870Z,99365.72
2022-12-19T22:54:01.285Z,99364.53
2022-12-19T22:56:30.646Z,99364.66
2022-12-19T22:59:01.624Z,99366.66
2022-12-19T23:01:31.992Z,99371.78
2022-12-19T23:04:00.546Z,99350.34
2022-12-19T23:06:29.549Z,99364.78
2022-12-19T23:08:56.274Z,99364.28
2022-12-19T23:11:30.147Z,99352.63
2022-12-19T23:13:57.157Z,99331.75
2022-12-19T23:16:24.032Z,99339.63
2022-12-19T23:18:50.812Z,99345.97
2022-12-19T23:21:20.723Z,99341.91
2022-12-19T23:23:49.568Z,99344.38
2022-12-19T23:26:22.739Z,99335.38
2022-12-19T23:29:01.453Z,99342.38
2022-12-19T23:31:28.839Z,99336.75
2022-12-19T23:33:57.064Z,99350.13
2022-12-19T23:37:00.602Z,99350.81
2022-12-19T23:39:13.299Z,99339.31
2022-12-19T23:41:42.523Z,99353.09
2022-12-19T23:44:10.314Z,99345.94
2022-12-19T23:46:37.854Z,99327.63
2022-12-19T23:49:04.732Z,99333.69
2022-12-19T23:51:31.491Z,99356.09
2022-12-19T23:53:58.503Z,99339.75
2022-12-19T23:56:30.302Z,99339.75
2022-12-19T23:58:57.559Z,99338.00
